Time;durP1;ratioP1;P1;durP2;ratioP2;P2;SDS_P1;SDS_P2;PMS_P1;PMS_P2;Temp;Humidity;BMP_temperature;BMP_pressure;BME280_temperature;BME280_humidity;BME280_pressure;Samples;Min_cycle;Max_cycle;Signal;HPM_P1;HPM_P2
2021/12/27 00:00:40;;;;;;;14.77;12.33;;;2.60;90.90;;;0.99;92.40;97003.03;5025655;28;20808;-70
2021/12/27 00:03:08;;;;;;;12.93;11.53;;;2.60;90.60;;;1.03;92.94;96999.00;5028342;28;20635;-68
2021/12/27 00:05:35;;;;;;;14.27;11.93;;;2.60;91.30;;;1.04;93.16;97005.13;5023809;28;20991;-71
2021/12/27 00:08:02;;;;;;;16.27;13.77;;;2.60;91.70;;;0.95;93.15;97001.72;5026205;28;20477;-74
2021/12/27 00:10:30;;;;;;;15.97;12.37;;;2.60;91.50;;;1.05;93.14;97002.31;5025863;28;20564;-72
2021/12/27 00:12:59;;;;;;;16.30;12.47;;;2.60;91.60;;;0.98;93.18;96991.56;5042592;28;20447;-68
2021/12/27 00:15:28;;;;;;;17.33;11.53;;;2.60;91.60;;;1.00;93.93;96999.38;5025259;28;20560;-67
2021/12/27 00:17:55;;;;;;;16.27;12.70;;;2.50;91.80;;;1.04;92.90;96984.69;5027556;28;20466;-69
2021/12/27 00:20:22;;;;;;;14.63;11.90;;;2.60;91.70;;;1.19;92.77;96998.00;5027295;28;20534;-68
2021/12/27 00:22:52;;;;;;;14.80;11.87;;;2.70;91.80;;;1.05;93.26;96991.66;5048465;28;21060;-69
2021/12/27 00:25:20;;;;;;;15.80;13.00;;;2.60;91.50;;;1.02;93.38;96992.03;5026968;28;20517;-73
2021/12/27 00:27:49;;;;;;;17.10;12.63;;;2.60;91.70;;;1.06;93.15;96989.81;5027394;28;20558;-67
2021/12/27 00:30:18;;;;;;;13.17;11.47;;;2.60;91.90;;;1.08;92.81;96991.31;5023620;28;20554;-68
2021/12/27 00:32:46;;;;;;;16.37;12.47;;;2.60;91.50;;;0.90;93.90;96985.50;5020253;28;21355;-73
2021/12/27 00:35:15;;;;;;;19.63;13.47;;;2.60;92.20;;;1.01;94.16;96989.53;5026248;28;20540;-70
2021/12/27 00:37:42;;;;;;;18.50;14.20;;;2.50;92.50;;;1.03;94.23;96983.03;5042886;28;20501;-66
2021/12/27 00:40:12;;;;;;;16.63;13.57;;;2.60;92.60;;;0.94;94.50;96984.94;5027055;28;20510;-68
2021/12/27 00:42:40;;;;;;;20.27;14.30;;;2.50;92.60;;;0.93;94.38;96982.47;5028097;28;20447;-70
2021/12/27 00:45:10;;;;;;;17.97;13.90;;;2.50;92.80;;;0.98;94.37;96977.41;5026943;28;20601;-73
2021/12/27 00:47:37;;;;;;;19.30;13.47;;;2.60;92.90;;;0.80;94.76;96980.41;5024657;28;21108;-74
2021/12/27 00:50:05;;;;;;;20.53;14.50;;;2.50;93.10;;;0.91;95.27;96979.16;5024978;28;20458;-72
2021/12/27 00:52:35;;;;;;;21.53;15.03;;;2.50;93.80;;;0.95;95.33;96980.44;5027310;28;20517;-67
2021/12/27 00:55:04;;;;;;;18.10;15.80;;;2.50;94.00;;;0.95;95.22;96980.44;5027396;28;20481;-70
2021/12/27 00:57:31;;;;;;;20.00;15.07;;;2.50;93.80;;;0.95;95.38;96975.97;5031630;28;20558;-67
2021/12/27 00:59:58;;;;;;;16.53;14.17;;;2.50;93.60;;;0.99;95.35;96971.13;5029321;28;20504;-73
2021/12/27 01:02:26;;;;;;;20.27;15.10;;;2.60;93.90;;;0.95;95.43;96970.66;5032021;28;20477;-67
2021/12/27 01:04:53;;;;;;;19.67;14.93;;;2.50;93.90;;;0.94;95.57;96965.50;5029051;28;20517;-68
2021/12/27 01:07:20;;;;;;;18.13;14.40;;;2.50;93.80;;;0.78;95.83;96956.66;5029291;28;20969;-71
2021/12/27 01:10:02;;;;;;;19.90;15.27;;;2.50;94.40;;;0.87;96.07;96960.06;5027696;28;20967;-71
2021/12/27 01:12:34;;;;;;;19.50;15.13;;;2.50;94.80;;;0.94;96.26;96952.19;5031960;28;20457;-70
2021/12/27 01:15:10;;;;;;;19.77;13.77;;;2.50;95.40;;;0.96;95.91;96951.00;5030036;28;20447;-67
2021/12/27 01:17:43;;;;;;;20.37;14.30;;;2.50;95.60;;;0.98;96.14;96937.53;5031655;28;20948;-67
2021/12/27 01:20:14;;;;;;;19.93;15.10;;;2.50;95.20;;;0.84;96.63;96947.97;5028043;28;20546;-67
2021/12/27 01:22:41;;;;;;;23.90;15.53;;;2.50;95.40;;;0.97;96.25;96958.00;5037310;28;20467;-71
2021/12/27 01:25:12;;;;;;;18.67;15.30;;;2.50;95.20;;;0.96;96.35;96963.47;5047468;28;20475;-67
2021/12/27 01:27:39;;;;;;;17.83;14.30;;;2.50;95.30;;;1.05;96.38;96969.53;5030044;28;20938;-72
2021/12/27 01:30:11;;;;;;;18.80;15.27;;;2.60;95.70;;;1.04;95.47;96968.75;5030117;28;21031;-74
2021/12/27 01:32:41;;;;;;;20.83;15.93;;;2.60;94.60;;;0.95;96.19;96959.16;5030572;28;20498;-69
2021/12/27 01:35:08;;;;;;;23.27;16.53;;;2.50;95.40;;;0.95;96.81;96960.00;5034517;28;20458;-69
2021/12/27 01:37:35;;;;;;;18.97;14.50;;;2.50;96.70;;;0.94;97.24;96962.84;5030174;28;20454;-70
2021/12/27 01:40:03;;;;;;;21.80;16.37;;;2.50;97.40;;;0.75;97.99;96954.34;5045164;28;20901;-67
2021/12/27 01:42:30;;;;;;;21.13;16.50;;;2.40;99.00;;;0.82;98.36;96963.25;5030425;28;20546;-68
2021/12/27 01:44:57;;;;;;;22.27;17.53;;;2.40;99.90;;;0.77;98.34;96949.69;5028602;28;20815;-72
2021/12/27 01:47:27;;;;;;;21.83;16.40;;;2.40;99.40;;;0.89;98.82;96965.22;5029015;28;20883;-68
2021/12/27 01:49:55;;;;;;;24.47;17.77;;;2.40;99.90;;;0.92;98.28;96963.03;5029355;28;20469;-73
2021/12/27 01:52:22;;;;;;;19.80;15.87;;;2.50;99.90;;;0.96;98.01;96955.50;5032592;28;20541;-72
2021/12/27 01:54:52;;;;;;;21.93;16.77;;;2.50;98.80;;;0.95;98.27;96956.50;5028855;28;20503;-68
2021/12/27 01:57:19;;;;;;;20.73;16.27;;;2.50;98.90;;;1.08;97.68;96954.06;5030228;28;20467;-71
2021/12/27 01:59:46;;;;;;;22.73;16.70;;;2.50;99.00;;;0.99;97.46;96949.84;5028128;28;20455;-70
2021/12/27 02:02:13;;;;;;;20.73;15.80;;;2.60;97.30;;;0.96;97.60;96947.50;5029535;28;20462;-69
2021/12/27 02:04:40;;;;;;;20.60;15.70;;;2.50;97.70;;;0.89;97.75;96949.25;5031600;28;21060;-70
2021/12/27 02:07:09;;;;;;;24.63;17.07;;;2.50;97.70;;;0.83;98.72;96945.47;5026266;28;20520;-67
2021/12/27 02:09:47;;;;;;;23.30;17.40;;;2.40;99.90;;;0.92;98.67;96956.88;5045616;28;20949;-69
2021/12/27 02:12:14;;;;;;;21.27;16.23;;;2.40;99.90;;;0.99;98.21;96942.66;5028000;28;20485;-67
2021/12/27 02:14:40;;;;;;;22.50;16.80;;;2.50;99.90;;;1.00;98.13;96951.50;5028412;28;20641;-70
2021/12/27 02:17:08;;;;;;;20.67;16.00;;;2.50;99.90;;;1.02;97.48;96946.81;5030511;28;21001;-70
2021/12/27 02:19:37;;;;;;;23.70;16.00;;;2.60;98.40;;;0.87;98.33;96940.63;5027735;28;20459;-72
2021/12/27 02:22:07;;;;;;;26.00;16.80;;;2.50;98.70;;;0.83;98.73;96938.34;5033308;28;20938;-70
2021/12/27 02:24:34;;;;;;;25.83;17.77;;;2.50;99.90;;;0.85;99.08;96927.50;5028190;28;20540;-69
2021/12/27 02:27:01;;;;;;;24.27;16.80;;;2.50;99.90;;;0.98;98.83;96940.19;5029037;28;20551;-70
2021/12/27 02:29:28;;;;;;;26.70;17.80;;;2.50;99.90;;;0.91;98.76;96936.59;5029485;28;20549;-67
2021/12/27 02:31:55;;;;;;;21.30;17.10;;;2.50;99.90;;;0.82;99.15;96934.00;5022855;28;20546;-71
2021/12/27 02:34:22;;;;;;;24.27;16.80;;;2.40;99.90;;;0.95;98.75;96937.88;5029693;28;20462;-68
2021/12/27 02:36:49;;;;;;;23.37;17.77;;;2.50;99.90;;;0.96;98.63;96944.84;5028255;28;20451;-67
2021/12/27 02:39:18;;;;;;;24.97;18.47;;;2.50;99.90;;;0.81;98.79;96931.53;5028639;28;20562;-68
2021/12/27 02:41:45;;;;;;;25.50;18.60;;;2.50;99.90;;;0.91;99.08;96928.63;5043879;28;20533;-69
2021/12/27 02:44:12;;;;;;;25.53;18.63;;;2.50;99.90;;;0.94;99.14;96941.56;5029819;28;20487;-68
2021/12/27 02:46:39;;;;;;;28.07;18.37;;;2.50;99.90;;;1.00;99.14;96938.19;5028984;28;20536;-71
2021/12/27 02:49:06;;;;;;;27.23;17.93;;;2.50;99.90;;;1.00;98.83;96935.53;5026965;28;20545;-70
2021/12/27 02:51:33;;;;;;;26.33;18.23;;;2.50;99.90;;;0.75;99.65;96927.75;5028866;28;20451;-70
2021/12/27 02:54:00;;;;;;;22.90;16.67;;;2.40;99.90;;;0.93;98.88;96931.94;5029791;28;20462;-70
2021/12/27 02:56:29;;;;;;;27.17;17.30;;;2.50;99.90;;;0.98;99.15;96940.19;5044278;28;20545;-68
2021/12/27 02:58:58;;;;;;;24.30;17.60;;;2.50;99.90;;;1.07;98.67;96931.13;5025779;28;20485;-68
2021/12/27 03:01:26;;;;;;;24.27;17.43;;;2.60;99.90;;;1.08;98.33;96938.09;5029508;28;20545;-72
2021/12/27 03:03:54;;;;;;;26.57;18.67;;;2.60;99.20;;;0.76;98.27;96886.88;5026487;28;20471;-66
2021/12/27 03:06:22;;;;;;;24.77;17.00;;;2.60;99.70;;;0.98;98.80;96934.84;5029254;28;20987;-67
2021/12/27 03:08:51;;;;;;;26.17;18.10;;;2.60;99.70;;;0.78;98.49;96876.88;5027472;28;20481;-71
2021/12/27 03:11:19;;;;;;;24.37;18.03;;;2.60;99.90;;;0.92;98.96;96923.13;5044008;28;20462;-70
2021/12/27 03:13:51;;;;;;;26.43;19.73;;;2.50;99.90;;;0.92;99.32;96930.28;5027328;28;20513;-69
2021/12/27 03:16:21;;;;;;;25.00;19.27;;;2.50;99.90;;;0.95;98.88;96900.66;5029388;28;20459;-68
2021/12/27 03:18:51;;;;;;;26.03;18.33;;;2.60;99.90;;;0.90;98.92;96916.34;5025239;28;20479;-67
2021/12/27 03:21:19;;;;;;;24.80;17.80;;;2.50;99.90;;;0.83;99.37;96902.94;5028173;28;21068;-74
2021/12/27 03:23:48;;;;;;;30.00;19.50;;;2.50;99.90;;;0.90;100.00;96908.34;5025762;28;20467;-68
2021/12/27 03:26:16;;;;;;;25.77;18.47;;;2.50;99.90;;;1.02;99.79;96906.06;5027399;28;20577;-70
2021/12/27 03:28:44;;;;;;;26.30;18.57;;;2.50;99.90;;;1.09;99.32;96910.47;5024190;28;20513;-69
2021/12/27 03:31:15;;;;;;;26.43;19.47;;;2.60;99.90;;;0.63;99.15;96839.63;5027208;28;21001;-68
2021/12/27 03:33:42;;;;;;;23.60;17.93;;;2.60;99.90;;;1.10;98.97;96913.97;5027760;28;21019;-72
2021/12/27 03:36:09;;;;;;;25.17;19.67;;;2.60;99.90;;;1.04;98.89;96910.22;5027394;28;20446;-68
2021/12/27 03:38:41;;;;;;;27.00;19.60;;;2.60;99.60;;;1.09;98.80;96913.13;5025655;28;20506;-68
2021/12/27 03:41:13;;;;;;;26.80;19.30;;;2.60;99.80;;;1.01;98.92;96910.56;5030542;28;21077;-71
2021/12/27 03:43:41;;;;;;;23.70;18.00;;;2.60;99.80;;;1.12;98.65;96902.13;5025179;28;20451;-72
2021/12/27 03:46:09;;;;;;;29.30;20.30;;;2.60;99.90;;;1.07;99.26;96890.41;5028334;28;20522;-75
2021/12/27 03:48:37;;;;;;;25.60;18.90;;;2.70;99.90;;;1.21;98.17;96902.88;5024870;28;20491;-68
2021/12/27 03:51:06;;;;;;;25.30;18.27;;;2.70;98.80;;;1.13;98.04;96902.97;5044061;28;20578;-69
2021/12/27 03:53:33;;;;;;;21.87;17.53;;;2.70;97.40;;;1.02;98.58;96901.59;5026585;28;20477;-71
2021/12/27 03:56:01;;;;;;;26.87;19.07;;;2.60;99.40;;;1.07;98.64;96907.19;5027549;28;20531;-71
2021/12/27 03:58:31;;;;;;;26.83;17.20;;;2.60;99.60;;;1.06;98.38;96902.88;5023782;28;20701;-67
2021/12/27 04:01:14;;;;;;;25.80;18.40;;;2.60;98.70;;;0.98;98.46;96897.63;5027906;28;20805;-68
2021/12/27 04:03:45;;;;;;;27.00;19.40;;;2.60;99.00;;;0.98;99.00;96910.91;5028141;28;20474;-70
2021/12/27 04:06:13;;;;;;;25.03;18.63;;;2.60;99.60;;;1.07;98.92;96909.84;5042790;28;21063;-67
2021/12/27 04:08:40;;;;;;;28.10;20.90;;;2.60;99.90;;;1.16;98.99;96912.44;5026554;28;20923;-68
2021/12/27 04:11:07;;;;;;;26.03;19.47;;;2.70;99.90;;;1.29;98.27;96909.97;5043061;28;20494;-70
2021/12/27 04:13:34;;;;;;;29.63;18.70;;;2.80;99.90;;;1.19;98.12;96912.06;5026639;28;20477;-69
2021/12/27 04:16:01;;;;;;;25.37;18.40;;;2.70;98.80;;;1.24;97.82;96905.19;5028005;28;20467;-72
2021/12/27 04:18:29;;;;;;;25.13;18.53;;;2.80;98.40;;;1.25;98.50;96906.84;5026921;28;20520;-66
2021/12/27 04:20:58;;;;;;;22.67;17.23;;;2.70;99.90;;;1.29;98.25;96901.13;5034252;28;21031;-69
2021/12/27 04:23:25;;;;;;;25.80;19.33;;;2.80;99.50;;;1.39;97.96;96897.19;5027181;28;20459;-72
2021/12/27 04:25:52;;;;;;;26.73;19.67;;;2.80;99.30;;;1.38;97.84;96898.19;5023174;28;20526;-69
2021/12/27 04:28:19;;;;;;;26.77;18.80;;;2.80;99.60;;;1.24;98.36;96899.84;5041896;28;20538;-67
2021/12/27 04:30:48;;;;;;;26.10;19.50;;;2.80;99.20;;;1.04;98.89;96888.94;5026979;28;20569;-68
2021/12/27 04:33:15;;;;;;;24.00;18.70;;;2.70;99.20;;;0.83;99.25;96877.19;5026243;28;20487;-67
2021/12/27 04:35:42;;;;;;;28.67;19.23;;;2.60;99.90;;;1.10;99.41;96903.34;5025651;28;21050;-74
2021/12/27 04:38:10;;;;;;;25.67;20.57;;;2.60;99.90;;;1.16;99.36;96909.78;5026271;28;20483;-68
2021/12/27 04:40:42;;;;;;;24.20;18.00;;;2.70;99.90;;;1.25;99.20;96922.78;5032412;28;20459;-66
2021/12/27 04:43:13;;;;;;;27.80;19.10;;;2.70;99.90;;;1.03;99.30;96899.75;5028799;28;20467;-67
2021/12/27 04:45:43;;;;;;;30.33;20.70;;;2.70;99.90;;;0.67;99.95;96856.03;5027542;28;20473;-68
2021/12/27 04:48:10;;;;;;;28.37;20.90;;;2.60;99.90;;;1.02;100.00;96909.56;5024347;28;20552;-67
2021/12/27 04:50:37;;;;;;;28.00;20.13;;;2.60;99.90;;;1.07;100.00;96907.19;5033171;28;20538;-68
2021/12/27 04:53:06;;;;;;;29.87;20.17;;;2.60;99.90;;;0.93;100.00;96911.47;5027872;28;20578;-71
2021/12/27 04:55:35;;;;;;;27.70;20.70;;;2.50;99.90;;;0.94;100.00;96886.53;5027509;28;20569;-71
2021/12/27 04:58:04;;;;;;;29.30;21.30;;;2.50;99.90;;;1.22;100.00;96904.53;5025590;28;20522;-66
2021/12/27 05:00:31;;;;;;;27.30;19.50;;;2.60;99.90;;;1.15;100.00;96892.97;5027043;28;20497;-71
2021/12/27 05:02:59;;;;;;;28.20;20.50;;;2.70;99.90;;;1.22;100.00;96898.38;5029121;28;20510;-67
2021/12/27 05:05:26;;;;;;;30.40;20.70;;;2.70;99.90;;;0.99;99.57;96854.06;5025953;28;21092;-70
2021/12/27 05:07:53;;;;;;;29.43;20.10;;;2.80;99.90;;;1.25;99.41;96903.31;5024201;28;20455;-69
2021/12/27 05:10:20;;;;;;;29.03;20.07;;;2.80;99.90;;;1.19;99.68;96901.41;5026477;28;20935;-66
2021/12/27 05:12:49;;;;;;;29.73;21.70;;;2.80;99.90;;;1.10;99.46;96898.81;5026720;28;20473;-66
2021/12/27 05:15:16;;;;;;;31.17;21.43;;;2.70;99.90;;;1.07;100.00;96901.84;5034840;28;20467;-68
2021/12/27 05:17:43;;;;;;;34.50;22.63;;;2.70;99.90;;;1.08;99.74;96895.53;5025860;28;20758;-70
2021/12/27 05:20:12;;;;;;;34.80;22.00;;;2.70;99.90;;;1.02;100.00;96880.31;5033368;28;20533;-69
2021/12/27 05:22:40;;;;;;;30.03;21.83;;;2.60;99.90;;;1.02;99.97;96885.63;5024954;28;20559;-67
2021/12/27 05:25:10;;;;;;;30.97;22.30;;;2.60;99.90;;;0.99;100.00;96891.31;5026485;28;20550;-66
2021/12/27 05:27:38;;;;;;;35.30;22.57;;;2.60;99.90;;;1.04;100.00;96886.28;5027761;28;20471;-69
2021/12/27 05:30:08;;;;;;;34.50;22.37;;;2.60;99.90;;;1.09;100.00;96875.88;5026238;28;20544;-66
2021/12/27 05:32:35;;;;;;;27.77;19.90;;;2.70;99.90;;;1.25;100.00;96879.38;5025749;28;20546;-69
2021/12/27 05:35:03;;;;;;;28.10;20.53;;;2.70;99.90;;;1.17;100.00;96882.16;5026934;28;20454;-68
2021/12/27 05:37:32;;;;;;;32.93;22.33;;;2.70;99.90;;;1.07;100.00;96869.94;5026207;28;20539;-71
2021/12/27 05:40:06;;;;;;;30.90;21.37;;;2.70;99.90;;;1.19;99.87;96877.47;5027229;28;20471;-67
2021/12/27 05:42:34;;;;;;;31.77;22.57;;;2.70;99.90;;;1.19;99.88;96878.28;5031706;28;20465;-67
2021/12/27 05:45:04;;;;;;;30.00;21.97;;;2.70;99.90;;;1.05;100.00;96857.81;5030118;28;20474;-70
2021/12/27 05:47:32;;;;;;;31.17;21.50;;;2.70;99.90;;;1.22;99.87;96877.94;5028521;28;20497;-70
2021/12/27 05:49:59;;;;;;;32.10;21.33;;;2.80;99.90;;;1.31;99.56;96883.16;5030109;28;20548;-67
2021/12/27 05:52:26;;;;;;;31.83;21.37;;;2.80;99.90;;;1.21;99.93;96880.75;5031200;28;20569;-67
2021/12/27 05:54:53;;;;;;;30.47;21.70;;;2.80;99.90;;;1.22;99.66;96880.59;5030108;28;20459;-70
2021/12/27 05:57:20;;;;;;;31.73;22.03;;;2.80;99.90;;;1.30;100.00;96881.50;5031650;28;20550;-66
2021/12/27 05:59:47;;;;;;;31.27;21.00;;;2.80;99.90;;;1.25;99.56;96884.69;5029738;28;20503;-70
2021/12/27 06:02:15;;;;;;;30.03;20.93;;;2.80;99.90;;;1.38;99.44;96889.41;5030092;28;20459;-66
2021/12/27 06:04:43;;;;;;;29.77;22.13;;;2.90;99.90;;;1.26;99.10;96889.00;5044898;28;20589;-70
2021/12/27 06:07:10;;;;;;;29.27;21.10;;;2.80;99.30;;;1.26;99.83;96881.03;5026116;28;20467;-67
2021/12/27 06:09:37;;;;;;;31.80;21.23;;;2.80;99.90;;;1.29;99.70;96880.69;5028166;28;20459;-71
2021/12/27 06:12:05;;;;;;;30.53;22.30;;;2.80;99.90;;;1.22;99.73;96883.25;5029829;28;20578;-68
2021/12/27 06:14:33;;;;;;;30.00;20.97;;;2.80;99.90;;;1.17;99.99;96877.63;5029083;28;20458;-67
2021/12/27 06:17:00;;;;;;;33.40;21.20;;;2.70;99.90;;;1.22;100.00;96885.06;5029127;28;20954;-69
2021/12/27 06:19:27;;;;;;;32.03;21.93;;;2.80;99.90;;;1.27;100.00;96882.69;5032772;28;20549;-73
2021/12/27 06:21:55;;;;;;;31.30;21.53;;;2.80;99.90;;;1.34;99.18;96875.63;5026483;28;20529;-71
2021/12/27 06:24:22;;;;;;;31.40;21.00;;;2.90;99.90;;;1.45;99.00;96878.84;5029845;28;20883;-70
2021/12/27 06:26:50;;;;;;;30.40;20.80;;;2.90;99.90;;;1.64;98.33;96890.72;5028119;28;20525;-66
2021/12/27 06:29:17;;;;;;;30.23;20.70;;;3.00;99.90;;;1.50;98.19;96885.22;5031421;28;20451;-66
2021/12/27 06:31:44;;;;;;;29.20;20.73;;;3.00;98.40;;;1.37;98.96;96887.75;5023158;28;20797;-67
2021/12/27 06:34:11;;;;;;;30.73;20.70;;;2.90;99.80;;;1.46;98.69;96880.50;5030176;28;20474;-69
2021/12/27 06:36:38;;;;;;;33.07;22.07;;;3.00;99.00;;;1.40;99.00;96898.03;5029377;28;20459;-70
2021/12/27 06:39:08;;;;;;;32.43;22.60;;;2.90;99.70;;;1.37;98.60;96899.19;5030977;28;20461;-70
2021/12/27 06:41:35;;;;;;;30.80;20.77;;;2.90;99.80;;;1.32;99.07;96893.63;5027942;28;20529;-69
2021/12/27 06:44:02;;;;;;;28.10;19.93;;;2.90;99.90;;;1.36;99.44;96886.91;5029083;28;20556;-67
2021/12/27 06:46:29;;;;;;;35.00;22.17;;;2.90;99.90;;;1.35;99.24;96884.41;5029578;28;20470;-70
2021/12/27 06:48:56;;;;;;;32.03;20.67;;;2.90;99.90;;;1.32;99.29;96885.63;5028996;28;20762;-68
2021/12/27 06:51:23;;;;;;;28.80;22.33;;;2.90;99.90;;;1.37;99.63;96885.91;5029081;28;20590;-71
2021/12/27 06:53:50;;;;;;;32.40;21.90;;;2.90;99.90;;;1.44;99.54;96871.84;5028359;28;20945;-67
2021/12/27 06:56:18;;;;;;;28.43;21.80;;;2.90;99.90;;;1.29;99.47;96870.03;5027826;28;20463;-68
2021/12/27 06:58:46;;;;;;;33.50;22.60;;;2.90;99.90;;;1.44;99.27;96862.03;5027389;28;20980;-69
2021/12/27 07:01:13;;;;;;;30.17;21.97;;;2.90;99.90;;;1.40;99.30;96860.75;5029943;28;20970;-71
2021/12/27 07:03:40;;;;;;;32.90;21.50;;;3.00;99.90;;;1.35;99.58;96863.97;5027766;28;20467;-71
2021/12/27 07:06:07;;;;;;;33.13;21.67;;;2.90;99.90;;;1.38;99.68;96868.91;5028793;28;20993;-71
2021/12/27 07:08:34;;;;;;;30.97;22.30;;;2.90;99.90;;;1.59;99.23;96874.50;5027510;28;21041;-72
2021/12/27 07:11:01;;;;;;;37.03;23.73;;;3.00;99.90;;;1.63;98.76;96878.41;5040131;28;20541;-70
2021/12/27 07:13:29;;;;;;;32.77;22.73;;;3.10;99.90;;;1.71;97.63;96878.31;5027887;28;20901;-73
2021/12/27 07:15:56;;;;;;;32.20;20.47;;;3.20;97.80;;;1.63;98.01;96881.09;5031489;28;21041;-71
2021/12/27 07:18:23;;;;;;;35.63;22.50;;;3.20;97.20;;;1.51;98.33;96872.75;5025928;28;21343;-71
2021/12/27 07:20:51;;;;;;;32.77;21.17;;;3.10;97.80;;;1.66;98.16;96880.72;5032798;28;20463;-70
2021/12/27 07:23:19;;;;;;;32.93;22.17;;;3.10;99.00;;;1.89;97.84;96883.22;5027619;28;20466;-71
2021/12/27 07:25:46;;;;;;;33.80;22.27;;;3.30;99.30;;;1.74;97.42;96880.63;5025892;28;20909;-71
2021/12/27 07:28:13;;;;;;;32.50;22.27;;;3.30;96.10;;;1.55;97.69;96869.53;5026465;28;20459;-72
2021/12/27 07:30:42;;;;;;;33.20;22.70;;;3.30;96.10;;;1.60;98.07;96887.63;5026024;28;20451;-73
2021/12/27 07:33:09;;;;;;;36.50;22.93;;;3.20;97.80;;;1.65;98.37;96874.56;5042602;28;20450;-72
2021/12/27 07:35:37;;;;;;;35.20;23.40;;;3.10;98.90;;;1.61;98.12;96873.31;5025512;28;20884;-72
2021/12/27 07:38:04;;;;;;;32.10;22.03;;;3.20;97.40;;;1.59;98.21;96854.00;5026014;28;21009;-70
2021/12/27 07:40:31;;;;;;;31.07;20.57;;;3.20;98.90;;;1.83;98.15;96881.31;5025955;28;20537;-69
2021/12/27 07:42:58;;;;;;;35.13;22.37;;;3.20;99.70;;;1.91;96.52;96889.22;5026094;28;20469;-72
2021/12/27 07:45:26;;;;;;;34.73;22.73;;;3.40;96.00;;;1.69;97.71;96875.84;5023787;28;21088;-70
2021/12/27 07:47:54;;;;;;;33.67;21.37;;;3.30;96.80;;;1.77;98.16;96882.91;5024904;28;20478;-74
2021/12/27 07:50:22;;;;;;;33.10;21.93;;;3.20;99.00;;;1.90;97.43;96876.91;5027451;28;20483;-73
2021/12/27 07:52:52;;;;;;;34.17;20.93;;;3.40;97.80;;;1.82;97.00;96874.34;5026414;28;20458;-71
2021/12/27 07:55:20;;;;;;;35.63;22.63;;;3.40;95.40;;;1.81;97.84;96868.19;5026928;28;20459;-75
2021/12/27 07:57:47;;;;;;;35.20;22.57;;;3.30;97.30;;;1.94;97.52;96864.84;5025282;28;20546;-72
2021/12/27 08:00:16;;;;;;;38.00;22.40;;;3.40;97.80;;;2.12;96.60;96855.59;5028964;28;20550;-71
2021/12/27 08:02:43;;;;;;;32.80;22.90;;;3.50;96.90;;;2.12;96.68;96867.09;5026692;28;20458;-71
2021/12/27 08:05:11;;;;;;;36.77;22.20;;;3.50;96.30;;;2.03;95.98;96851.41;5026691;28;20451;-71
2021/12/27 08:07:38;;;;;;;33.17;21.70;;;3.60;95.20;;;1.97;96.77;96859.16;5025004;28;20460;-72
2021/12/27 08:10:07;;;;;;;35.23;20.50;;;3.50;95.60;;;1.91;97.87;96862.56;5027205;28;20525;-74
2021/12/27 08:12:35;;;;;;;36.73;22.83;;;3.50;97.10;;;2.05;98.22;96860.06;5026686;28;20964;-72
2021/12/27 08:15:02;;;;;;;36.47;22.33;;;3.50;99.00;;;1.88;98.57;96848.81;5026171;28;20474;-71
2021/12/27 08:17:29;;;;;;;36.37;22.80;;;3.40;99.10;;;1.89;98.23;96858.44;5023892;28;20533;-72
2021/12/27 08:19:56;;;;;;;35.93;23.57;;;3.40;99.40;;;2.05;97.73;96857.41;5027992;28;20458;-72
2021/12/27 08:22:24;;;;;;;39.73;21.10;;;3.60;97.90;;;2.23;97.58;96855.09;5026230;28;20514;-71
2021/12/27 08:24:52;;;;;;;36.33;23.00;;;3.70;99.90;;;2.40;97.05;96860.16;5028842;28;20465;-72
2021/12/27 08:27:21;;;;;;;36.30;21.53;;;3.80;98.70;;;2.20;97.09;96857.31;5024966;28;20562;-72
2021/12/27 08:29:48;;;;;;;34.50;22.13;;;3.80;97.10;;;2.25;97.47;96868.22;5025711;28;20462;-70
2021/12/27 08:32:15;;;;;;;36.60;23.83;;;3.70;97.30;;;2.23;97.59;96868.44;5026067;28;20467;-72
2021/12/27 08:34:43;;;;;;;36.80;23.47;;;3.70;97.50;;;2.35;97.53;96867.91;5024856;28;20548;-74
2021/12/27 08:37:10;;;;;;;36.30;22.20;;;3.70;98.80;;;2.21;97.60;96859.81;5024645;28;20495;-72
2021/12/27 08:39:38;;;;;;;38.37;22.40;;;3.70;97.90;;;2.34;97.74;96867.09;5027080;28;20470;-72
2021/12/27 08:42:08;;;;;;;41.70;22.60;;;3.80;97.90;;;2.37;96.42;96871.22;5024975;28;20463;-73
2021/12/27 08:44:35;;;;;;;37.23;22.00;;;3.90;95.60;;;2.26;97.82;96862.72;5023389;28;20460;-73
2021/12/27 08:47:02;;;;;;;40.20;22.60;;;3.80;97.00;;;2.26;97.40;96864.53;5042269;28;20552;-72
2021/12/27 08:49:29;;;;;;;42.13;22.10;;;3.80;96.50;;;2.10;97.90;96865.63;5042715;28;20554;-71
2021/12/27 08:51:56;;;;;;;36.57;21.30;;;3.80;96.80;;;2.17;98.22;96871.03;5024442;28;20778;-72
2021/12/27 08:54:23;;;;;;;38.97;23.40;;;3.70;98.10;;;2.19;98.06;96867.13;5026363;28;20820;-71
2021/12/27 08:56:52;;;;;;;40.37;22.07;;;3.70;97.80;;;2.24;98.08;96862.09;5022561;28;20466;-72
2021/12/27 08:59:19;;;;;;;40.23;23.37;;;3.80;99.10;;;2.30;97.75;96868.50;5026188;28;20466;-73
2021/12/27 09:01:46;;;;;;;38.30;21.10;;;3.80;98.70;;;2.15;97.44;96841.09;5022863;28;20955;-74
2021/12/27 09:04:13;;;;;;;38.03;22.17;;;3.80;98.10;;;2.20;97.71;96875.97;5024538;28;20536;-71
2021/12/27 09:06:40;;;;;;;37.73;22.07;;;3.70;97.80;;;2.24;98.27;96878.06;5026099;28;20481;-71
2021/12/27 09:09:07;;;;;;;40.90;22.77;;;3.70;99.90;;;1.63;98.98;96811.84;5026302;28;20455;-73
2021/12/27 09:11:34;;;;;;;42.50;22.20;;;3.60;99.60;;;2.31;98.42;96887.97;5024460;28;20490;-73
2021/12/27 09:14:03;;;;;;;38.87;23.30;;;3.70;99.90;;;2.61;96.84;96877.16;5026562;28;20486;-72
2021/12/27 09:16:30;;;;;;;34.40;22.40;;;3.90;97.80;;;2.53;97.00;96884.28;5027691;28;20513;-70
2021/12/27 09:18:57;;;;;;;37.13;21.47;;;4.00;96.30;;;2.30;96.97;96875.66;5029300;28;20454;-71
2021/12/27 09:21:24;;;;;;;44.50;23.37;;;3.90;95.80;;;2.67;98.11;96877.22;5030418;28;20515;-71
2021/12/27 09:23:52;;;;;;;42.63;23.60;;;4.00;99.90;;;2.65;96.44;96865.06;5030588;28;20906;-72
2021/12/27 09:26:19;;;;;;;35.77;22.83;;;4.10;95.50;;;2.86;95.14;96855.41;5029672;28;20459;-71
2021/12/27 09:28:46;;;;;;;36.60;21.90;;;4.30;93.50;;;2.80;94.64;96852.47;5028436;28;20790;-73
2021/12/27 09:31:14;;;;;;;35.00;22.90;;;4.30;93.30;;;2.75;94.50;96846.91;5029706;28;20633;-71
2021/12/27 09:33:42;;;;;;;37.73;21.13;;;4.30;93.00;;;2.68;94.72;96851.38;5030356;28;20516;-72
2021/12/27 09:36:09;;;;;;;35.13;22.33;;;4.20;93.40;;;2.66;95.20;96854.22;5031231;28;20466;-71
2021/12/27 09:38:36;;;;;;;36.37;21.67;;;4.20;93.60;;;2.93;96.14;96849.09;5028955;28;20457;-71
2021/12/27 09:41:03;;;;;;;36.13;22.33;;;4.30;96.10;;;3.16;95.98;96853.31;5028316;28;20941;-70
2021/12/27 09:43:31;;;;;;;34.37;20.77;;;4.50;95.50;;;2.94;93.93;96861.41;5028838;28;20486;-71
2021/12/27 09:45:58;;;;;;;41.50;23.07;;;4.40;92.70;;;2.88;95.27;96854.19;5029507;28;20578;-71
2021/12/27 09:48:26;;;;;;;40.77;22.63;;;4.30;93.30;;;2.54;96.35;96851.28;5031550;28;20553;-71
2021/12/27 09:50:57;;;;;;;39.20;22.80;;;4.10;94.10;;;2.75;95.59;96859.44;5040216;28;20569;-70
2021/12/27 09:53:25;;;;;;;40.87;22.73;;;4.20;94.50;;;2.91;95.54;96840.47;5055760;28;20520;-73
2021/12/27 09:55:52;;;;;;;37.23;21.27;;;4.30;95.50;;;3.12;95.26;96838.72;5030691;28;20491;-73
2021/12/27 09:58:20;;;;;;;33.93;20.40;;;4.40;94.10;;;3.07;94.19;96836.63;5030045;28;20660;-71
2021/12/27 10:00:47;;;;;;;36.67;22.00;;;4.50;93.10;;;2.92;95.56;96831.44;5029426;28;21055;-74
2021/12/27 10:03:14;;;;;;;35.30;20.37;;;4.40;93.80;;;2.83;95.21;96838.75;5044852;28;20549;-71
2021/12/27 10:05:43;;;;;;;35.67;21.30;;;4.30;93.80;;;2.97;95.69;96837.00;5026852;28;20930;-72
2021/12/27 10:08:10;;;;;;;36.00;19.47;;;4.40;94.10;;;2.78;95.44;96846.50;5031257;28;20509;-74
2021/12/27 10:10:38;;;;;;;29.27;19.20;;;4.30;93.90;;;3.22;96.56;96841.88;5027860;28;20824;-72
2021/12/27 10:13:08;;;;;;;36.40;21.87;;;4.50;97.90;;;3.01;94.09;96847.28;5043903;28;20882;-72
2021/12/27 10:15:38;;;;;;;32.57;20.43;;;4.50;93.30;;;3.32;95.69;96854.00;5029297;28;20529;-72
2021/12/27 10:18:11;;;;;;;28.30;20.40;;;4.60;96.00;;;3.05;94.03;96852.03;5030638;28;20466;-71
2021/12/27 10:20:38;;;;;;;31.77;17.97;;;4.60;91.90;;;2.95;94.74;96852.38;5027161;28;21017;-73